Time;durP1;ratioP1;P1;durP2;ratioP2;P2;SDS_P1;SDS_P2;PMS_P1;PMS_P2;Temp;Humidity;BMP_temperature;BMP_pressure;BME280_temperature;BME280_humidity;BME280_pressure;Samples;Min_cycle;Max_cycle;Signal;HPM_P1;HPM_P2
2021/04/20 00:02:14;;;;;;;12.60;10.33;;;7.00;1.00;;;;;;5095393;28;20186;-68
2021/04/20 00:04:39;;;;;;;10.57;8.80;;;7.00;1.00;;;;;;5095937;28;20545;-68
2021/04/20 00:07:06;;;;;;;11.90;9.20;;;6.80;1.00;;;;;;5095274;28;20183;-68
2021/04/20 00:09:32;;;;;;;13.68;9.27;;;6.80;1.00;;;;;;5095078;28;20217;-68
2021/04/20 00:11:57;;;;;;;14.20;9.37;;;6.90;1.00;;;;;;5095175;28;20164;-68
2021/04/20 00:14:23;;;;;;;13.90;9.83;;;7.00;1.00;;;;;;5095165;28;20198;-68
2021/04/20 00:16:48;;;;;;;12.33;9.10;;;7.00;1.00;;;;;;5095045;28;20175;-68
2021/04/20 00:19:14;;;;;;;12.07;8.63;;;6.90;1.00;;;;;;5095017;28;20660;-68
2021/04/20 00:21:40;;;;;;;11.90;9.77;;;6.80;1.00;;;;;;5095235;28;20172;-68
2021/04/20 00:24:06;;;;;;;13.33;8.83;;;6.80;1.00;;;;;;5094603;28;20192;-68
2021/04/20 00:26:31;;;;;;;12.27;9.37;;;6.70;1.00;;;;;;5094885;28;20164;-68
2021/04/20 00:28:57;;;;;;;12.87;8.60;;;6.80;1.00;;;;;;5094753;28;20746;-68
2021/04/20 00:31:22;;;;;;;12.67;8.83;;;6.70;1.00;;;;;;5094767;28;20166;-68
2021/04/20 00:33:48;;;;;;;12.13;8.50;;;6.70;1.00;;;;;;5094621;28;20191;-68
2021/04/20 00:36:13;;;;;;;10.90;9.07;;;6.60;1.00;;;;;;5094709;28;20193;-68
2021/04/20 00:38:39;;;;;;;12.73;9.20;;;6.50;1.00;;;;;;5094601;28;20164;-68
2021/04/20 00:41:10;;;;;;;13.32;9.13;;;6.30;1.00;;;;;;5094559;28;20260;-68
2021/04/20 00:43:39;;;;;;;10.23;8.43;;;6.30;79.30;;;;;;5094487;28;20200;-68
2021/04/20 00:46:09;;;;;;;12.10;8.32;;;6.50;99.90;;;;;;5094347;28;20181;-67
2021/04/20 00:48:34;;;;;;;13.43;9.38;;;6.50;25.90;;;;;;5093074;28;20183;-68
2021/04/20 00:51:00;;;;;;;13.20;9.33;;;6.30;1.00;;;;;;5094281;28;20195;-68
2021/04/20 00:53:25;;;;;;;13.33;8.00;;;6.30;1.00;;;;;;5094273;28;20187;-68
2021/04/20 00:55:51;;;;;;;11.60;8.03;;;6.20;1.00;;;;;;5092996;28;20173;-68
2021/04/20 00:58:16;;;;;;;10.83;8.70;;;6.10;4.00;;;;;;5094498;28;20164;-68
2021/04/20 01:00:42;;;;;;;12.53;8.40;;;6.00;99.90;;;;;;5094192;28;20175;-68
2021/04/20 01:03:08;;;;;;;11.57;9.07;;;6.10;99.90;;;;;;5094064;28;20195;-68
2021/04/20 01:05:38;;;;;;;11.10;8.40;;;6.20;99.90;;;;;;5094090;28;20439;-68
2021/04/20 01:08:09;;;;;;;11.77;8.15;;;6.20;99.90;;;;;;5093876;28;20171;-68
2021/04/20 01:10:43;;;;;;;8.93;7.25;;;6.20;3.30;;;;;;5094238;28;20529;-68
2021/04/20 01:13:12;;;;;;;9.32;6.82;;;6.10;66.50;;;;;;5094350;28;20556;-68
2021/04/20 01:15:43;;;;;;;12.40;8.38;;;6.10;1.00;;;;;;5094190;28;20176;-68
2021/04/20 01:18:15;;;;;;;12.07;8.43;;;6.00;1.00;;;;;;5093875;28;20178;-68
2021/04/20 01:20:45;;;;;;;10.50;8.00;;;5.90;1.00;;;;;;5093937;28;20625;-68
2021/04/20 01:23:18;;;;;;;10.25;8.27;;;6.00;99.90;;;;;;5093708;28;20578;-68
2021/04/20 01:25:43;;;;;;;9.20;7.72;;;6.00;99.90;;;;;;5093722;28;20172;-68
2021/04/20 01:28:10;;;;;;;12.90;7.07;;;6.00;99.90;;;;;;5094252;28;20490;-68
2021/04/20 01:30:35;;;;;;;9.35;7.60;;;5.90;66.10;;;;;;5093586;28;20696;-68
2021/04/20 01:33:05;;;;;;;12.50;8.60;;;6.00;99.90;;;;;;5093554;28;20195;-68
2021/04/20 01:35:34;;;;;;;9.00;8.10;;;6.00;1.00;;;;;;5093038;28;20695;-68
2021/04/20 01:38:04;;;;;;;10.23;8.10;;;6.00;1.00;;;;;;5093821;28;20229;-68
2021/04/20 01:40:30;;;;;;;9.73;8.50;;;5.80;1.00;;;;;;5093722;28;20158;-68
2021/04/20 01:42:58;;;;;;;9.90;8.35;;;5.80;99.90;;;;;;5093304;28;20249;-68
2021/04/20 01:45:24;;;;;;;11.40;7.80;;;5.70;99.90;;;;;;5093749;28;20345;-68
2021/04/20 01:47:50;;;;;;;9.47;6.97;;;5.90;99.90;;;;;;5092161;28;20207;-68
2021/04/20 01:50:16;;;;;;;13.00;8.13;;;5.80;48.20;;;;;;5093601;28;20221;-68
2021/04/20 01:52:44;;;;;;;11.85;7.50;;;5.80;53.30;;;;;;5093620;28;20250;-68
2021/04/20 01:55:12;;;;;;;9.32;7.68;;;5.70;90.40;;;;;;5093244;28;20167;-68
2021/04/20 01:57:40;;;;;;;9.98;7.55;;;5.80;99.90;;;;;;5093183;28;20670;-68
2021/04/20 02:00:09;;;;;;;13.43;8.02;;;5.90;99.90;;;;;;5093227;28;20175;-68
2021/04/20 02:02:35;;;;;;;11.30;7.93;;;5.90;1.00;;;;;;5093135;28;20179;-68
2021/04/20 02:05:03;;;;;;;10.45;7.90;;;5.80;1.00;;;;;;5093160;28;20560;-68
2021/04/20 02:07:29;;;;;;;9.35;7.72;;;5.70;66.10;;;;;;5093069;28;20170;-68
2021/04/20 02:09:54;;;;;;;10.75;7.90;;;5.90;99.90;;;;;;5092881;28;20218;-68
2021/04/20 02:12:20;;;;;;;12.07;7.47;;;5.90;20.20;;;;;;5093104;28;20644;-68
2021/04/20 02:14:46;;;;;;;8.77;6.30;;;5.70;1.00;;;;;;5092988;28;20255;-68
2021/04/20 02:17:12;;;;;;;9.57;7.80;;;5.70;1.00;;;;;;5093060;28;20570;-68
2021/04/20 02:19:39;;;;;;;20.25;14.38;;;5.60;1.00;;;;;;5092846;28;20221;-68
2021/04/20 02:22:05;;;;;;;13.68;8.27;;;5.50;1.00;;;;;;5092838;28;20175;-68
2021/04/20 02:24:30;;;;;;;9.90;7.78;;;5.90;99.90;;;;;;5092788;28;20214;-68
2021/04/20 02:26:57;;;;;;;15.50;8.80;;;5.80;1.00;;;;;;5093138;28;20203;-68
2021/04/20 02:29:23;;;;;;;9.85;7.70;;;5.60;1.00;;;;;;5093222;28;20559;-68
2021/04/20 02:31:48;;;;;;;12.07;8.00;;;5.60;1.00;;;;;;5092060;28;20184;-68
2021/04/20 02:34:14;;;;;;;9.00;7.57;;;5.60;1.00;;;;;;5092918;28;20222;-68
2021/04/20 02:36:42;;;;;;;13.70;9.00;;;5.50;1.00;;;;;;5093362;28;20171;-68
2021/04/20 02:39:09;;;;;;;15.43;9.15;;;5.40;14.40;;;;;;5093200;28;20596;-68
2021/04/20 02:41:38;;;;;;;12.10;8.40;;;5.40;26.00;;;;;;5093268;28;20182;-68
2021/04/20 02:44:08;;;;;;;11.45;8.93;;;5.50;72.20;;;;;;5091624;28;20187;-68
2021/04/20 02:46:40;;;;;;;11.23;8.00;;;5.50;1.00;;;;;;5094279;28;20167;-68
2021/04/20 02:49:07;;;;;;;12.60;8.88;;;5.40;1.00;;;;;;5096745;28;20236;-68
2021/04/20 02:51:36;;;;;;;12.60;8.30;;;5.40;1.00;;;;;;5096986;28;20175;-68
2021/04/20 02:54:03;;;;;;;10.40;8.27;;;5.40;1.00;;;;;;5096558;28;20298;-68
2021/04/20 02:56:30;;;;;;;11.27;8.20;;;5.50;1.00;;;;;;5096613;28;20170;-68
2021/04/20 02:59:00;;;;;;;12.75;8.95;;;5.40;1.00;;;;;;5096875;28;20171;-68
2021/04/20 03:01:31;;;;;;;10.35;8.38;;;5.40;1.00;;;;;;5096651;28;20164;-68
2021/04/20 03:03:57;;;;;;;11.82;8.70;;;5.50;1.00;;;;;;5096454;28;20183;-68
2021/04/20 03:06:23;;;;;;;21.95;9.43;;;5.50;1.00;;;;;;5096458;28;20198;-68
2021/04/20 03:08:49;;;;;;;13.47;9.60;;;5.50;1.00;;;;;;5096470;28;20556;-68
2021/04/20 03:11:23;;;;;;;14.55;9.40;;;5.50;1.00;;;;;;5096300;28;20431;-68
2021/04/20 03:13:49;;;;;;;11.77;9.18;;;5.50;1.00;;;;;;5096779;28;20533;-68
2021/04/20 03:16:16;;;;;;;12.27;8.67;;;5.40;1.00;;;;;;5095400;28;20178;-68
2021/04/20 03:18:42;;;;;;;11.02;8.00;;;5.40;1.00;;;;;;5097482;28;20439;-68
2021/04/20 03:21:15;;;;;;;11.43;8.77;;;5.50;1.00;;;;;;5096125;28;20631;-68
2021/04/20 03:23:42;;;;;;;11.40;8.20;;;5.50;1.00;;;;;;5095019;28;20791;-68
2021/04/20 03:26:26;;;;;;;14.93;8.38;;;5.40;1.00;;;;;;5095952;28;20659;-68
2021/04/20 03:28:56;;;;;;;10.85;8.20;;;5.30;1.00;;;;;;5095979;28;20160;-68
2021/04/20 03:31:59;;;;;;;14.55;9.32;;;5.20;1.00;;;;;;5096512;28;20191;-68
2021/04/20 03:34:37;;;;;;;10.23;7.68;;;5.10;1.00;;;;;;5096076;28;20281;-68
2021/04/20 03:37:16;;;;;;;14.32;8.77;;;5.10;1.00;;;;;;5096079;28;20187;-68
2021/04/20 03:39:46;;;;;;;15.13;8.85;;;5.20;1.00;;;;;;5094578;28;20201;-68
2021/04/20 03:42:21;;;;;;;13.48;9.25;;;5.10;1.00;;;;;;5095749;28;20242;-68
2021/04/20 03:45:05;;;;;;;17.65;9.15;;;5.00;1.00;;;;;;5095534;28;20274;-68
2021/04/20 03:47:43;;;;;;;10.23;7.72;;;4.90;1.00;;;;;;5095610;28;20181;-68
2021/04/20 03:50:23;;;;;;;13.68;9.45;;;4.90;30.40;;;;;;5095582;28;20187;-68
2021/04/20 03:52:52;;;;;;;10.68;8.70;;;4.90;99.90;;;;;;5095743;28;20175;-68
2021/04/20 03:55:20;;;;;;;13.63;9.15;;;4.90;9.10;;;;;;5095531;28;20194;-68
2021/04/20 03:57:46;;;;;;;11.82;8.52;;;4.90;15.30;;;;;;5094821;28;20582;-68
2021/04/20 04:00:15;;;;;;;11.20;8.45;;;4.90;59.70;;;;;;5095354;28;20262;-68
2021/04/20 04:02:44;;;;;;;14.60;9.60;;;4.90;14.00;;;;;;5095278;28;20172;-68
2021/04/20 04:05:15;;;;;;;13.20;9.65;;;4.90;21.70;;;;;;5095341;28;20174;-68
2021/04/20 04:07:42;;;;;;;13.52;10.05;;;5.10;1.00;;;;;;5095261;28;20158;-68
2021/04/20 04:10:09;;;;;;;14.77;9.35;;;4.90;1.00;;;;;;5095005;28;20206;-67
2021/04/20 04:12:38;;;;;;;13.65;9.02;;;4.90;5.30;;;;;;5095160;28;20171;-68
2021/04/20 04:15:05;;;;;;;15.15;8.88;;;4.90;1.00;;;;;;5095390;28;20171;-68
2021/04/20 04:17:32;;;;;;;13.38;9.23;;;4.70;1.00;;;;;;5095047;28;20176;-68
2021/04/20 04:19:59;;;;;;;12.07;9.20;;;4.70;75.60;;;;;;5093737;28;20187;-68
2021/04/20 04:22:29;;;;;;;13.15;8.65;;;4.70;99.90;;;;;;5094993;28;20199;-68
2021/04/20 04:24:56;;;;;;;12.30;9.07;;;4.60;98.10;;;;;;5094817;28;20221;-68
2021/04/20 04:27:26;;;;;;;12.07;9.73;;;4.70;99.90;;;;;;5094864;28;20640;-68
2021/04/20 04:29:56;;;;;;;10.98;8.10;;;4.60;99.90;;;;;;5094739;28;20744;-68
2021/04/20 04:32:23;;;;;;;13.48;8.95;;;4.70;99.90;;;;;;5094677;28;20163;-68
2021/04/20 04:34:50;;;;;;;12.85;8.02;;;4.70;99.90;;;;;;5093459;28;20618;-68
2021/04/20 04:37:16;;;;;;;14.43;9.13;;;4.70;20.70;;;;;;5094903;28;20225;-68
2021/04/20 04:39:45;;;;;;;11.75;8.35;;;4.80;99.90;;;;;;5094618;28;20234;-68
2021/04/20 04:42:12;;;;;;;12.80;8.40;;;4.80;49.20;;;;;;5094551;28;20601;-68
2021/04/20 04:44:38;;;;;;;14.77;9.45;;;5.00;5.50;;;;;;5093089;28;20567;-68
2021/04/20 04:47:07;;;;;;;13.88;9.77;;;5.10;1.00;;;;;;5094359;28;20171;-68
2021/04/20 04:49:35;;;;;;;13.90;9.43;;;5.00;1.00;;;;;;5094515;28;20194;-68
2021/04/20 04:52:02;;;;;;;18.23;10.38;;;5.00;1.00;;;;;;5094127;28;20163;-68
2021/04/20 04:54:28;;;;;;;13.60;10.65;;;5.00;1.00;;;;;;5094046;28;20630;-67
2021/04/20 04:56:55;;;;;;;14.90;9.38;;;4.80;1.00;;;;;;5094267;28;20536;-68
2021/04/20 04:59:24;;;;;;;21.25;10.52;;;5.10;1.00;;;;;;5094300;28;20583;-67
2021/04/20 05:01:51;;;;;;;14.68;9.55;;;5.00;1.00;;;;;;5092659;28;20174;-68
2021/04/20 05:04:22;;;;;;;13.27;9.77;;;4.80;1.00;;;;;;5094197;28;20266;-68
2021/04/20 05:06:49;;;;;;;13.13;9.27;;;4.70;1.00;;;;;;5093855;28;20167;-67
2021/04/20 05:09:17;;;;;;;13.90;8.88;;;4.80;6.20;;;;;;5093334;28;20683;-68
2021/04/20 05:11:44;;;;;;;15.45;10.23;;;4.90;1.00;;;;;;5093139;28;20240;-68
2021/04/20 05:14:11;;;;;;;13.10;8.70;;;4.80;1.00;;;;;;5093666;28;20196;-68
2021/04/20 05:16:38;;;;;;;14.32;9.90;;;4.80;1.00;;;;;;5093956;28;20256;-68
2021/04/20 05:19:06;;;;;;;15.40;10.65;;;5.00;99.90;;;;;;5094018;28;20663;-68
2021/04/20 05:21:32;;;;;;;12.93;10.10;;;5.30;1.00;;;;;;5093587;28;20636;-68
2021/04/20 05:23:58;;;;;;;18.17;10.30;;;5.20;1.00;;;;;;5094282;28;20194;-68
2021/04/20 05:26:31;;;;;;;13.63;10.47;;;5.30;1.00;;;;;;5094274;28;20260;-69
2021/04/20 05:29:04;;;;;;;14.80;10.48;;;5.10;1.00;;;;;;5093420;28;20275;-69
2021/04/20 05:31:30;;;;;;;20.77;10.60;;;5.10;1.00;;;;;;5093652;28;20159;-68
2021/04/20 05:33:57;;;;;;;14.50;9.85;;;5.20;1.00;;;;;;5091924;28;20219;-68
2021/04/20 05:36:24;;;;;;;21.58;11.70;;;5.30;1.00;;;;;;5093122;28;20175;-68
2021/04/20 05:38:51;;;;;;;13.20;10.15;;;5.60;1.00;;;;;;5093247;28;20170;-68
2021/04/20 05:41:25;;;;;;;15.65;10.48;;;5.60;99.90;;;;;;5093392;28;20175;-68
2021/04/20 05:43:55;;;;;;;13.85;10.55;;;5.50;99.90;;;;;;5093175;28;20189;-69
2021/04/20 05:46:21;;;;;;;15.95;10.30;;;5.40;99.90;;;;;;5093064;28;20179;-68
2021/04/20 05:48:48;;;;;;;16.20;10.27;;;5.60;99.90;;;;;;5093109;28;20532;-68
2021/04/20 05:51:16;;;;;;;15.43;10.57;;;5.70;99.90;;;;;;5092894;28;20683;-67
2021/04/20 05:53:41;;;;;;;20.20;10.77;;;5.60;99.90;;;;;;5091268;28;20195;-67
2021/04/20 05:56:07;;;;;;;32.23;22.80;;;5.70;99.90;;;;;;5093006;28;20202;-67
2021/04/20 05:58:34;;;;;;;15.48;12.00;;;5.70;1.00;;;;;;5093056;28;20199;-67
2021/04/20 06:01:01;;;;;;;14.90;10.10;;;5.70;1.00;;;;;;5092956;28;20167;-67
2021/04/20 06:03:28;;;;;;;18.90;12.05;;;5.80;1.00;;;;;;5093165;28;20725;-68
2021/04/20 06:05:56;;;;;;;19.70;11.98;;;6.00;1.00;;;;;;5093155;28;20224;-68
2021/04/20 06:08:23;;;;;;;24.83;12.05;;;6.20;99.90;;;;;;5093106;28;20589;-68
2021/04/20 06:10:48;;;;;;;18.80;11.35;;;6.60;99.90;;;;;;5092633;28;20194;-68
2021/04/20 06:13:15;;;;;;;17.70;11.97;;;6.80;98.70;;;;;;5092632;28;20187;-68
2021/04/20 06:15:41;;;;;;;16.42;11.30;;;7.00;40.20;;;;;;5092963;28;20165;-68
2021/04/20 06:18:07;;;;;;;16.20;12.38;;;7.00;1.00;;;;;;5092771;28;20559;-68
2021/04/20 06:20:33;;;;;;;14.07;10.90;;;7.10;1.00;;;;;;5092617;28;20255;-68
2021/04/20 06:23:02;;;;;;;17.48;11.80;;;7.20;1.00;;;;;;5091049;28;20438;-67
2021/04/20 06:25:29;;;;;;;20.90;12.00;;;7.30;1.00;;;;;;5091651;28;20171;-69
2021/04/20 06:27:55;;;;;;;19.00;11.85;;;7.40;1.00;;;;;;5092692;28;20175;-68
2021/04/20 06:30:21;;;;;;;29.70;14.50;;;7.60;1.00;;;;;;5092227;28;20211;-68
2021/04/20 06:32:48;;;;;;;22.10;12.10;;;7.60;1.00;;;;;;5092346;28;20220;-69
2021/04/20 06:35:16;;;;;;;23.40;14.02;;;7.70;1.00;;;;;;5092347;28;20163;-68
2021/04/20 06:37:44;;;;;;;28.98;15.15;;;7.70;1.00;;;;;;5092298;28;20194;-68
2021/04/20 06:40:32;;;;;;;27.33;19.05;;;7.80;1.00;;;;;;5092249;28;20625;-68
2021/04/20 06:43:29;;;;;;;24.40;14.82;;;8.00;1.00;;;;;;5079424;28;20219;-68
2021/04/20 06:46:03;;;;;;;22.35;14.65;;;8.20;1.00;;;;;;5083841;28;20210;-68
2021/04/20 06:48:53;;;;;;;23.23;12.48;;;8.20;1.00;;;;;;5091024;28;20615;-68
2021/04/20 06:51:26;;;;;;;19.88;13.13;;;8.40;1.00;;;;;;5091932;28;20195;-68
2021/04/20 06:54:04;;;;;;;20.90;14.52;;;8.50;1.00;;;;;;5092463;28;20195;-68
2021/04/20 06:56:42;;;;;;;20.00;14.13;;;8.40;1.00;;;;;;5092416;28;20149;-68
2021/04/20 06:59:33;;;;;;;19.50;13.60;;;8.40;1.00;;;;;;5092113;28;20377;-68
2021/04/20 07:02:24;;;;;;;25.00;16.37;;;8.50;1.00;;;;;;5092146;28;20187;-69
2021/04/20 07:04:57;;;;;;;14.67;11.30;;;8.70;1.00;;;;;;5092188;28;20419;-69
2021/04/20 07:07:36;;;;;;;18.07;12.80;;;8.80;1.00;;;;;;5092374;28;20371;-69
2021/04/20 07:10:09;;;;;;;20.07;12.17;;;8.90;1.00;;;;;;5091842;28;20464;-68
2021/04/20 07:12:35;;;;;;;21.53;13.40;;;9.00;1.00;;;;;;5092366;28;20426;-69
2021/04/20 07:15:02;;;;;;;18.93;13.17;;;9.10;1.00;;;;;;5092186;28;20480;-68
2021/04/20 07:17:33;;;;;;;16.33;12.40;;;9.20;1.00;;;;;;5090671;28;20410;-69
2021/04/20 07:20:10;;;;;;;14.97;11.57;;;9.10;1.00;;;;;;5092183;28;20393;-69
2021/04/20 07:22:59;;;;;;;20.10;12.67;;;9.30;1.00;;;;;;5092363;28;20405;-68
2021/04/20 07:25:42;;;;;;;18.07;11.77;;;9.50;1.00;;;;;;5091967;28;20395;-68
2021/04/20 07:28:25;;;;;;;19.43;12.10;;;9.60;1.00;;;;;;5091961;28;20406;-68
2021/04/20 07:31:17;;;;;;;17.47;11.00;;;9.60;1.00;;;;;;5092260;28;20800;-68
2021/04/20 07:33:55;;;;;;;17.67;13.00;;;9.70;1.00;;;;;;5093427;28;20416;-68
2021/04/20 07:36:47;;;;;;;19.40;12.53;;;9.70;1.00;;;;;;5095865;28;20381;-68
2021/04/20 07:39:20;;;;;;;17.03;13.67;;;10.00;1.00;;;;;;5095965;28;20426;-68
2021/04/20 07:42:04;;;;;;;15.83;12.37;;;10.00;1.00;;;;;;5095795;28;20406;-68
2021/04/20 07:44:35;;;;;;;20.30;14.20;;;10.10;1.00;;;;;;5095819;28;20494;-68
2021/04/20 07:47:16;;;;;;;18.40;13.47;;;10.20;1.00;;;;;;5095956;28;20404;-68
2021/04/20 07:50:05;;;;;;;23.13;13.77;;;10.60;1.00;;;;;;5095698;28;20441;-68
2021/04/20 07:52:38;;;;;;;17.50;12.73;;;10.50;1.00;;;;;;5095521;28;20480;-67
2021/04/20 07:55:10;;;;;;;17.07;13.23;;;10.60;1.00;;;;;;5095880;28;20405;-68
2021/04/20 07:57:40;;;;;;;18.63;14.33;;;10.60;1.00;;;;;;5095209;28;20413;-68
2021/04/20 08:00:09;;;;;;;16.23;12.87;;;10.80;1.00;;;;;;5094834;28;20375;-68
2021/04/20 08:02:37;;;;;;;18.10;12.70;;;11.00;1.00;;;;;;5095078;28;20412;-68
2021/04/20 08:05:23;;;;;;;16.87;12.90;;;11.20;1.00;;;;;;5095185;28;20459;-67
2021/04/20 08:07:54;;;;;;;15.80;12.57;;;11.10;1.00;;;;;;5095492;28;20749;-68
2021/04/20 08:10:25;;;;;;;17.63;13.10;;;11.20;1.00;;;;;;5093558;28;20862;-69
2021/04/20 08:12:57;;;;;;;17.00;12.20;;;11.40;1.00;;;;;;5094603;28;20390;-68
2021/04/20 08:15:36;;;;;;;26.80;11.70;;;11.30;1.00;;;;;;5095116;28;20374;-68
2021/04/20 08:18:15;;;;;;;19.20;12.90;;;11.70;1.00;;;;;;5095142;28;20404;-68
2021/04/20 08:20:43;;;;;;;21.53;13.43;;;12.00;1.00;;;;;;5094839;28;20401;-68
2021/04/20 08:23:10;;;;;;;21.63;15.37;;;12.10;1.00;;;;;;5093588;28;20565;-68
2021/04/20 08:25:50;;;;;;;15.10;11.67;;;12.30;1.00;;;;;;5094414;28;20471;-68
2021/04/20 08:28:31;;;;;;;20.00;12.53;;;12.30;1.00;;;;;;5095301;28;20742;-67
2021/04/20 08:31:21;;;;;;;14.90;12.00;;;12.40;1.00;;;;;;5094740;28;20804;-67
2021/04/20 08:33:54;;;;;;;21.40;11.67;;;12.50;1.00;;;;;;5094636;28;20405;-68
2021/04/20 08:37:01;;;;;;;18.03;13.00;;;12.60;1.00;;;;;;5094688;28;20897;-68
2021/04/20 08:40:01;;;;;;;20.63;14.27;;;12.50;1.00;;;;;;5054599;28;20448;-68
2021/04/20 08:42:36;;;;;;;16.07;12.10;;;12.80;1.00;;;;;;5093005;28;20394;-68
2021/04/20 08:45:19;;;;;;;17.30;13.10;;;13.00;1.00;;;;;;5094212;28;20870;-68
2021/04/20 08:48:06;;;;;;;19.30;14.80;;;13.30;1.00;;;;;;5094299;28;20390;-68
2021/04/20 08:50:37;;;;;;;18.17;13.70;;;13.40;1.00;;;;;;5094415;28;20465;-67
2021/04/20 08:53:21;;;;;;;18.33;13.30;;;13.60;1.00;;;;;;5094434;28;20414;-67
2021/04/20 08:56:24;;;;;;;17.60;12.67;;;13.70;1.00;;;;;;5094317;28;20462;-67
2021/04/20 08:58:55;;;;;;;13.83;10.60;;;13.90;1.00;;;;;;5093903;28;21026;-68
2021/04/20 09:01:32;;;;;;;18.53;14.27;;;13.70;1.00;;;;;;5094113;28;20399;-68
2021/04/20 09:04:35;;;;;;;14.47;11.60;;;14.00;1.00;;;;;;5093932;28;20426;-68
2021/04/20 09:07:18;;;;;;;17.80;13.97;;;14.10;1.00;;;;;;5093894;28;20402;-67
2021/04/20 09:09:47;;;;;;;17.23;14.17;;;13.90;1.00;;;;;;5093420;28;20454;-68
2021/04/20 09:12:14;;;;;;;14.10;10.63;;;13.70;1.00;;;;;;5093643;28;20406;-68
2021/04/20 09:14:42;;;;;;;18.03;11.87;;;13.70;1.00;;;;;;5091891;28;20418;-68
2021/04/20 09:17:10;;;;;;;15.47;11.93;;;14.20;1.00;;;;;;5093989;28;20407;-68
2021/04/20 09:19:56;;;;;;;17.37;12.53;;;14.30;1.00;;;;;;5093477;28;20443;-68
2021/04/20 09:22:49;;;;;;;16.73;12.90;;;14.70;1.00;;;;;;5093846;28;20457;-68
2021/04/20 09:25:30;;;;;;;20.07;12.60;;;14.70;1.00;;;;;;5093533;28;20401;-67
2021/04/20 09:27:55;;;;;;;15.00;12.57;;;15.00;1.00;;;;;;5093510;28;20427;-68
2021/04/20 09:30:23;;;;;;;15.57;13.03;;;15.20;1.00;;;;;;5093602;28;20446;-67
2021/04/20 09:32:55;;;;;;;16.00;11.47;;;15.50;1.00;;;;;;5093419;28;20163;-68
2021/04/20 09:35:22;;;;;;;18.60;12.83;;;15.70;1.00;;;;;;5093496;28;20730;-67
2021/04/20 09:37:49;;;;;;;12.37;10.77;;;14.70;1.00;;;;;;5093499;28;20406;-70
2021/04/20 09:40:16;;;;;;;15.10;11.70;;;15.20;1.00;;;;;;5093362;28;20405;-68
2021/04/20 09:42:47;;;;;;;16.17;11.80;;;14.60;1.00;;;;;;5093035;28;20482;-69
2021/04/20 09:45:13;;;;;;;19.07;12.37;;;15.20;1.00;;;;;;5093059;28;20409;-68
2021/04/20 09:48:08;;;;;;;17.43;12.30;;;15.70;1.00;;;;;;5092999;28;21011;-68
2021/04/20 09:50:57;;;;;;;15.73;11.73;;;15.80;1.00;;;;;;5093288;28;20552;-68
2021/04/20 09:53:28;;;;;;;15.10;11.77;;;16.10;1.00;;;;;;5093125;28;20437;-68
2021/04/20 09:56:28;;;;;;;14.80;12.17;;;16.30;1.00;;;;;;5092447;28;20394;-69
2021/04/20 09:58:54;;;;;;;12.83;11.00;;;16.30;1.00;;;;;;5048045;28;20428;-68
2021/04/20 10:01:34;;;;;;;16.17;12.67;;;16.10;1.00;;;;;;5092886;28;20906;-68
2021/04/20 10:04:07;;;;;;;18.43;11.47;;;15.40;99.90;;;;;;5092989;28;20235;-68
2021/04/20 10:07:00;;;;;;;15.47;12.30;;;15.20;99.90;;;;;;5092735;28;20441;-68
2021/04/20 10:09:44;;;;;;;15.80;11.80;;;15.40;99.90;;;;;;5091308;28;20445;-68
2021/04/20 10:12:10;;;;;;;13.90;10.47;;;16.00;99.90;;;;;;5092979;28;20420;-68
2021/04/20 10:14:47;;;;;;;14.10;10.57;;;17.00;1.00;;;;;;5091299;28;20422;-68
2021/04/20 10:17:19;;;;;;;14.40;10.80;;;17.00;1.00;;;;;;5092496;28;20163;-68
2021/04/20 10:20:13;;;;;;;10.87;9.73;;;17.10;99.90;;;;;;5092638;28;20410;-69
2021/04/20 10:22:57;;;;;;;12.60;11.10;;;17.30;99.90;;;;;;5092802;28;20408;-69
2021/04/20 10:25:35;;;;;;;16.77;12.60;;;17.10;99.90;;;;;;5092672;28;20464;-69
2021/04/20 10:28:26;;;;;;;15.53;11.00;;;16.50;99.90;;;;;;5092876;28;20817;-69
2021/04/20 10:30:55;;;;;;;15.53;12.37;;;16.90;99.90;;;;;;5093193;28;20428;-69
2021/04/20 10:33:23;;;;;;;13.80;10.43;;;16.80;99.90;;;;;;5092435;28;20479;-69
2021/04/20 10:35:54;;;;;;;18.63;11.30;;;16.80;99.90;;;;;;5092705;28;20413;-68
2021/04/20 10:38:24;;;;;;;15.13;10.30;;;16.90;99.90;;;;;;5092644;28;20575;-68
2021/04/20 10:40:54;;;;;;;13.30;10.90;;;17.10;99.90;;;;;;5091096;28;20721;-69
2021/04/20 10:43:22;;;;;;;15.37;12.10;;;17.50;99.90;;;;;;5092193;28;20745;-69
2021/04/20 10:45:49;;;;;;;13.40;11.10;;;17.50;99.90;;;;;;5092322;28;20457;-69
2021/04/20 10:48:21;;;;;;;12.23;10.63;;;17.90;99.90;;;;;;5092147;28;20416;-69
2021/04/20 10:50:49;;;;;;;16.83;11.53;;;18.20;99.90;;;;;;5092332;28;20425;-67
2021/04/20 10:53:25;;;;;;;12.90;10.93;;;18.70;99.90;;;;;;5092907;28;20465;-68
2021/04/20 10:55:55;;;;;;;13.77;11.07;;;18.60;99.90;;;;;;5092116;28;20790;-68
2021/04/20 10:58:24;;;;;;;11.60;9.77;;;18.60;99.90;;;;;;5092086;28;20425;-68
2021/04/20 11:00:52;;;;;;;11.20;10.10;;;18.90;99.90;;;;;;5091993;28;20434;-68
2021/04/20 11:03:27;;;;;;;12.13;10.80;;;19.20;99.90;;;;;;5092272;28;20480;-69
2021/04/20 11:05:53;;;;;;;16.53;10.90;;;19.60;99.90;;;;;;5091993;28;20402;-68
2021/04/20 11:08:24;;;;;;;11.33;10.10;;;19.20;99.90;;;;;;5092629;28;20457;-69
2021/04/20 11:10:49;;;;;;;11.73;10.53;;;19.40;99.90;;;;;;5095720;28;20528;-68
2021/04/20 11:13:15;;;;;;;14.37;11.43;;;19.50;99.90;;;;;;5095793;28;20455;-69
2021/04/20 11:15:41;;;;;;;10.57;9.47;;;19.40;99.90;;;;;;5095729;28;20175;-68
2021/04/20 11:18:12;;;;;;;15.57;10.77;;;19.50;99.90;;;;;;5095668;28;20177;-68
2021/04/20 11:20:47;;;;;;;11.60;10.20;;;19.60;99.90;;;;;;5095752;28;20952;-69
2021/04/20 11:23:20;;;;;;;11.67;10.00;;;19.50;99.90;;;;;;5095842;28;20907;-69
2021/04/20 11:25:55;;;;;;;14.60;8.40;;;19.00;99.90;;;;;;5094126;28;20508;-68
2021/04/20 11:28:41;;;;;;;10.30;9.30;;;18.90;99.90;;;;;;5096080;28;20753;-69
2021/04/20 11:31:10;;;;;;;12.30;10.90;;;19.00;99.90;;;;;;5095658;28;20465;-69
2021/04/20 11:34:15;;;;;;;11.07;9.97;;;18.90;99.90;;;;;;5095219;28;20775;-69
2021/04/20 11:36:52;;;;;;;12.20;10.67;;;18.00;99.90;;;;;;5095334;28;20882;-67
2021/04/20 11:39:42;;;;;;;10.70;9.60;;;17.90;99.90;;;;;;5095595;28;20387;-68
2021/04/20 11:42:15;;;;;;;12.93;10.07;;;18.40;99.90;;;;;;5095481;28;20386;-68
2021/04/20 11:44:47;;;;;;;13.63;10.13;;;18.80;99.90;;;;;;5095314;28;20416;-68
2021/04/20 11:47:13;;;;;;;16.70;9.67;;;18.80;99.90;;;;;;5095600;28;20429;-68
2021/04/20 11:49:47;;;;;;;13.10;11.27;;;18.60;99.90;;;;;;5093689;28;20449;-69
2021/04/20 11:52:19;;;;;;;12.13;9.67;;;18.60;99.90;;;;;;5095505;28;20421;-68
2021/04/20 11:54:45;;;;;;;13.30;10.40;;;18.80;99.90;;;;;;5095224;28;20971;-69
2021/04/20 11:57:15;;;;;;;17.47;12.03;;;18.30;99.90;;;;;;5095161;28;20394;-69
2021/04/20 11:59:46;;;;;;;12.63;10.50;;;17.80;99.90;;;;;;5093978;28;20785;-68
2021/04/20 12:02:12;;;;;;;12.60;10.43;;;18.30;99.90;;;;;;5095388;28;20441;-68
2021/04/20 12:04:46;;;;;;;17.47;11.80;;;18.70;99.90;;;;;;5094875;28;20430;-68
2021/04/20 12:07:13;;;;;;;12.00;10.70;;;18.60;99.90;;;;;;5094859;28;20443;-68
2021/04/20 12:09:41;;;;;;;15.20;9.77;;;18.30;99.90;;;;;;5094726;28;20590;-68
2021/04/20 12:12:08;;;;;;;13.90;11.07;;;17.60;99.90;;;;;;5093684;28;20408;-68
2021/04/20 12:14:39;;;;;;;16.07;12.70;;;18.00;99.90;;;;;;5094489;28;20930;-69
2021/04/20 12:17:05;;;;;;;11.20;10.00;;;18.10;99.90;;;;;;5094954;28;20781;-68
2021/04/20 12:19:35;;;;;;;12.80;10.23;;;19.10;99.90;;;;;;5094195;28;20778;-68
2021/04/20 12:22:02;;;;;;;14.90;10.70;;;18.90;99.90;;;;;;5094457;28;20460;-69
2021/04/20 12:24:29;;;;;;;12.27;10.50;;;19.40;99.90;;;;;;5094416;28;20451;-68
2021/04/20 12:26:58;;;;;;;14.40;11.37;;;19.60;99.90;;;;;;5094059;28;20438;-68
2021/04/20 12:29:27;;;;;;;13.20;11.03;;;20.10;99.90;;;;;;5094508;28;20476;-68
2021/04/20 12:31:53;;;;;;;12.70;10.63;;;20.30;99.90;;;;;;5094678;28;20402;-68
2021/04/20 12:34:27;;;;;;;13.37;10.57;;;20.50;99.90;;;;;;5093611;28;20602;-67
2021/04/20 12:36:55;;;;;;;12.77;11.20;;;20.50;99.90;;;;;;5094266;28;20162;-68
2021/04/20 12:39:29;;;;;;;22.07;13.77;;;20.00;99.90;;;;;;5093839;28;20849;-69
2021/04/20 12:41:57;;;;;;;16.40;13.43;;;19.70;99.90;;;;;;5094006;28;20439;-68
2021/04/20 12:44:29;;;;;;;14.43;11.60;;;20.50;99.90;;;;;;5092622;28;20427;-68
2021/04/20 12:46:56;;;;;;;12.50;11.20;;;21.50;99.90;;;;;;5094150;28;20483;-68
2021/04/20 12:49:24;;;;;;;14.43;12.10;;;22.10;99.90;;;;;;5093493;28;20399;-68
2021/04/20 12:51:51;;;;;;;11.77;10.60;;;22.20;99.90;;;;;;5093905;28;20404;-68
2021/04/20 12:54:20;;;;;;;15.87;13.73;;;21.30;99.90;;;;;;5092537;28;20478;-69
2021/04/20 12:56:58;;;;;;;15.70;10.23;;;21.00;99.90;;;;;;5094351;28;20413;-69
2021/04/20 12:59:27;;;;;;;13.43;11.93;;;20.80;99.90;;;;;;5092638;28;20386;-69
2021/04/20 13:01:57;;;;;;;14.27;10.20;;;21.40;99.90;;;;;;5093941;28;20438;-68
2021/04/20 13:04:35;;;;;;;13.43;11.80;;;22.10;99.90;;;;;;5093741;28;20433;-68
2021/04/20 13:07:02;;;;;;;12.00;10.40;;;22.90;99.90;;;;;;5093854;28;20449;-68